sensor_id;sensor_type;location;lat;lon;timestamp;P1;durP1;ratioP1;P2;durP2;ratioP2
72273;SDS011;60208;48.692;8.948;2023-04-15T00:00:55;6.50;;;2.95;;
72273;SDS011;60208;48.692;8.948;2023-04-15T00:03:22;4.45;;;2.65;;
72273;SDS011;60208;48.692;8.948;2023-04-15T00:05:47;7.13;;;2.80;;
72273;SDS011;60208;48.692;8.948;2023-04-15T00:08:12;5.75;;;2.70;;
72273;SDS011;60208;48.692;8.948;2023-04-15T00:10:39;5.82;;;2.75;;
72273;SDS011;60208;48.692;8.948;2023-04-15T00:13:04;3.47;;;2.30;;
72273;SDS011;60208;48.692;8.948;2023-04-15T00:15:30;6.15;;;2.38;;
72273;SDS011;60208;48.692;8.948;2023-04-15T00:17:55;5.15;;;2.88;;
72273;SDS011;60208;48.692;8.948;2023-04-15T00:20:21;8.43;;;3.10;;
72273;SDS011;60208;48.692;8.948;2023-04-15T00:22:47;5.38;;;3.13;;
72273;SDS011;60208;48.692;8.948;2023-04-15T00:25:13;7.05;;;3.20;;
72273;SDS011;60208;48.692;8.948;2023-04-15T00:27:39;5.93;;;3.22;;
72273;SDS011;60208;48.692;8.948;2023-04-15T00:30:05;6.78;;;3.00;;
72273;SDS011;60208;48.692;8.948;2023-04-15T00:32:31;5.05;;;2.70;;
72273;SDS011;60208;48.692;8.948;2023-04-15T00:34:56;6.85;;;2.70;;
72273;SDS011;60208;48.692;8.948;2023-04-15T00:37:22;7.22;;;2.65;;
72273;SDS011;60208;48.692;8.948;2023-04-15T00:39:47;7.45;;;2.70;;
72273;SDS011;60208;48.692;8.948;2023-04-15T00:42:13;7.35;;;3.00;;
72273;SDS011;60208;48.692;8.948;2023-04-15T00:44:39;5.10;;;2.58;;
72273;SDS011;60208;48.692;8.948;2023-04-15T00:47:04;6.45;;;2.95;;
72273;SDS011;60208;48.692;8.948;2023-04-15T00:49:30;4.07;;;2.60;;
72273;SDS011;60208;48.692;8.948;2023-04-15T00:51:56;8.15;;;3.20;;
72273;SDS011;60208;48.692;8.948;2023-04-15T00:54:21;6.20;;;3.00;;
72273;SDS011;60208;48.692;8.948;2023-04-15T00:56:47;6.88;;;3.30;;
72273;SDS011;60208;48.692;8.948;2023-04-15T00:59:13;4.13;;;2.80;;
72273;SDS011;60208;48.692;8.948;2023-04-15T01:01:39;5.68;;;2.83;;
72273;SDS011;60208;48.692;8.948;2023-04-15T01:04:04;5.75;;;3.28;;
72273;SDS011;60208;48.692;8.948;2023-04-15T01:06:31;9.15;;;3.05;;
72273;SDS011;60208;48.692;8.948;2023-04-15T01:08:56;5.72;;;3.13;;
72273;SDS011;60208;48.692;8.948;2023-04-15T01:11:22;7.72;;;3.05;;
72273;SDS011;60208;48.692;8.948;2023-04-15T01:13:49;5.47;;;3.10;;
72273;SDS011;60208;48.692;8.948;2023-04-15T01:16:16;6.32;;;2.92;;
72273;SDS011;60208;48.692;8.948;2023-04-15T01:18:41;8.82;;;3.42;;
72273;SDS011;60208;48.692;8.948;2023-04-15T01:21:07;6.63;;;3.33;;
72273;SDS011;60208;48.692;8.948;2023-04-15T01:23:34;6.93;;;3.30;;
72273;SDS011;60208;48.692;8.948;2023-04-15T01:26:01;5.28;;;2.90;;
72273;SDS011;60208;48.692;8.948;2023-04-15T01:28:26;5.40;;;2.95;;
72273;SDS011;60208;48.692;8.948;2023-04-15T01:31:14;5.20;;;2.92;;
72273;SDS011;60208;48.692;8.948;2023-04-15T01:33:39;6.47;;;3.03;;
72273;SDS011;60208;48.692;8.948;2023-04-15T01:36:06;6.07;;;3.05;;
72273;SDS011;60208;48.692;8.948;2023-04-15T01:38:35;6.18;;;2.85;;
72273;SDS011;60208;48.692;8.948;2023-04-15T01:41:02;5.28;;;3.13;;
72273;SDS011;60208;48.692;8.948;2023-04-15T01:43:32;8.35;;;3.20;;
72273;SDS011;60208;48.692;8.948;2023-04-15T01:45:58;7.22;;;3.22;;
72273;SDS011;60208;48.692;8.948;2023-04-15T01:48:23;6.25;;;3.03;;
72273;SDS011;60208;48.692;8.948;2023-04-15T01:50:49;5.05;;;3.28;;
72273;SDS011;60208;48.692;8.948;2023-04-15T01:53:14;7.43;;;3.20;;
72273;SDS011;60208;48.692;8.948;2023-04-15T01:55:40;5.75;;;3.15;;
72273;SDS011;60208;48.692;8.948;2023-04-15T01:58:07;6.45;;;3.03;;
72273;SDS011;60208;48.692;8.948;2023-04-15T02:00:33;8.82;;;3.08;;
72273;SDS011;60208;48.692;8.948;2023-04-15T02:02:58;6.63;;;3.28;;
72273;SDS011;60208;48.692;8.948;2023-04-15T02:05:24;7.03;;;3.05;;
72273;SDS011;60208;48.692;8.948;2023-04-15T02:07:50;7.15;;;3.05;;
72273;SDS011;60208;48.692;8.948;2023-04-15T02:10:15;3.88;;;2.85;;
72273;SDS011;60208;48.692;8.948;2023-04-15T02:12:41;5.93;;;3.05;;
72273;SDS011;60208;48.692;8.948;2023-04-15T02:15:07;5.30;;;2.70;;
72273;SDS011;60208;48.692;8.948;2023-04-15T02:17:33;7.53;;;3.03;;
72273;SDS011;60208;48.692;8.948;2023-04-15T02:19:59;6.70;;;2.97;;
72273;SDS011;60208;48.692;8.948;2023-04-15T02:22:25;5.45;;;2.90;;
72273;SDS011;60208;48.692;8.948;2023-04-15T02:24:50;5.45;;;2.72;;
72273;SDS011;60208;48.692;8.948;2023-04-15T02:27:16;4.32;;;2.80;;
72273;SDS011;60208;48.692;8.948;2023-04-15T02:29:42;4.00;;;2.70;;
72273;SDS011;60208;48.692;8.948;2023-04-15T02:32:11;4.88;;;2.35;;
72273;SDS011;60208;48.692;8.948;2023-04-15T02:34:40;5.32;;;2.55;;
72273;SDS011;60208;48.692;8.948;2023-04-15T02:37:07;5.00;;;2.72;;
72273;SDS011;60208;48.692;8.948;2023-04-15T02:39:35;6.13;;;3.50;;
72273;SDS011;60208;48.692;8.948;2023-04-15T02:42:01;4.18;;;2.78;;
72273;SDS011;60208;48.692;8.948;2023-04-15T02:44:27;6.20;;;3.03;;
72273;SDS011;60208;48.692;8.948;2023-04-15T02:46:52;6.28;;;3.15;;
72273;SDS011;60208;48.692;8.948;2023-04-15T02:49:21;5.90;;;2.70;;
72273;SDS011;60208;48.692;8.948;2023-04-15T02:51:47;5.28;;;2.75;;
72273;SDS011;60208;48.692;8.948;2023-04-15T02:54:19;6.07;;;2.83;;
72273;SDS011;60208;48.692;8.948;2023-04-15T02:59:12;6.32;;;2.92;;
72273;SDS011;60208;48.692;8.948;2023-04-15T03:01:37;5.18;;;2.55;;
72273;SDS011;60208;48.692;8.948;2023-04-15T03:04:03;6.05;;;2.90;;
72273;SDS011;60208;48.692;8.948;2023-04-15T03:06:28;9.60;;;3.03;;
72273;SDS011;60208;48.692;8.948;2023-04-15T03:08:54;6.38;;;2.92;;
72273;SDS011;60208;48.692;8.948;2023-04-15T03:11:20;4.78;;;2.72;;
72273;SDS011;60208;48.692;8.948;2023-04-15T03:13:46;5.25;;;2.83;;
72273;SDS011;60208;48.692;8.948;2023-04-15T03:16:12;8.93;;;3.00;;
72273;SDS011;60208;48.692;8.948;2023-04-15T03:18:37;9.00;;;3.20;;
72273;SDS011;60208;48.692;8.948;2023-04-15T03:21:03;9.82;;;3.33;;
72273;SDS011;60208;48.692;8.948;2023-04-15T03:23:29;7.35;;;3.47;;
72273;SDS011;60208;48.692;8.948;2023-04-15T03:25:55;7.93;;;3.35;;
72273;SDS011;60208;48.692;8.948;2023-04-15T03:28:22;5.18;;;3.03;;
72273;SDS011;60208;48.692;8.948;2023-04-15T03:30:47;9.07;;;3.25;;
72273;SDS011;60208;48.692;8.948;2023-04-15T03:33:13;8.07;;;3.10;;
72273;SDS011;60208;48.692;8.948;2023-04-15T03:35:38;9.30;;;3.25;;
72273;SDS011;60208;48.692;8.948;2023-04-15T03:38:03;6.25;;;2.85;;
72273;SDS011;60208;48.692;8.948;2023-04-15T03:40:29;6.13;;;3.15;;
72273;SDS011;60208;48.692;8.948;2023-04-15T03:42:54;5.07;;;2.90;;
72273;SDS011;60208;48.692;8.948;2023-04-15T03:45:20;7.68;;;3.10;;
72273;SDS011;60208;48.692;8.948;2023-04-15T03:47:45;7.65;;;3.45;;
72273;SDS011;60208;48.692;8.948;2023-04-15T03:50:11;7.43;;;3.28;;
72273;SDS011;60208;48.692;8.948;2023-04-15T03:52:36;8.75;;;3.40;;
72273;SDS011;60208;48.692;8.948;2023-04-15T03:55:02;5.50;;;3.13;;
72273;SDS011;60208;48.692;8.948;2023-04-15T03:57:27;5.78;;;2.80;;
72273;SDS011;60208;48.692;8.948;2023-04-15T03:59:53;5.82;;;3.20;;
72273;SDS011;60208;48.692;8.948;2023-04-15T04:02:18;5.40;;;3.00;;
72273;SDS011;60208;48.692;8.948;2023-04-15T04:04:43;6.47;;;2.67;;
72273;SDS011;60208;48.692;8.948;2023-04-15T04:07:13;8.30;;;3.20;;
72273;SDS011;60208;48.692;8.948;2023-04-15T04:09:40;5.45;;;3.08;;
72273;SDS011;60208;48.692;8.948;2023-04-15T04:12:06;5.60;;;2.60;;
72273;SDS011;60208;48.692;8.948;2023-04-15T04:14:31;5.20;;;2.70;;
72273;SDS011;60208;48.692;8.948;2023-04-15T04:16:57;4.80;;;2.78;;
72273;SDS011;60208;48.692;8.948;2023-04-15T04:19:22;4.45;;;2.80;;
72273;SDS011;60208;48.692;8.948;2023-04-15T04:21:47;4.55;;;2.72;;
72273;SDS011;60208;48.692;8.948;2023-04-15T04:24:13;8.27;;;3.00;;
72273;SDS011;60208;48.692;8.948;2023-04-15T04:26:38;7.20;;;2.80;;
72273;SDS011;60208;48.692;8.948;2023-04-15T04:29:03;5.72;;;2.85;;
72273;SDS011;60208;48.692;8.948;2023-04-15T04:31:29;5.40;;;2.55;;
72273;SDS011;60208;48.692;8.948;2023-04-15T04:33:54;5.43;;;2.78;;
72273;SDS011;60208;48.692;8.948;2023-04-15T04:36:19;5.70;;;2.95;;
72273;SDS011;60208;48.692;8.948;2023-04-15T04:38:45;5.85;;;2.85;;
72273;SDS011;60208;48.692;8.948;2023-04-15T04:41:10;7.55;;;2.70;;
72273;SDS011;60208;48.692;8.948;2023-04-15T04:43:36;7.18;;;2.60;;
72273;SDS011;60208;48.692;8.948;2023-04-15T04:46:01;7.10;;;2.78;;
72273;SDS011;60208;48.692;8.948;2023-04-15T04:48:26;5.93;;;2.95;;
72273;SDS011;60208;48.692;8.948;2023-04-15T04:50:52;5.00;;;2.75;;
72273;SDS011;60208;48.692;8.948;2023-04-15T04:53:17;5.25;;;3.00;;
72273;SDS011;60208;48.692;8.948;2023-04-15T04:55:42;7.38;;;3.38;;
72273;SDS011;60208;48.692;8.948;2023-04-15T04:58:08;5.88;;;3.10;;
72273;SDS011;60208;48.692;8.948;2023-04-15T05:00:33;8.07;;;3.17;;
72273;SDS011;60208;48.692;8.948;2023-04-15T05:02:59;9.35;;;3.45;;
72273;SDS011;60208;48.692;8.948;2023-04-15T05:05:24;5.43;;;2.97;;
72273;SDS011;60208;48.692;8.948;2023-04-15T05:07:50;6.07;;;2.92;;
72273;SDS011;60208;48.692;8.948;2023-04-15T05:10:15;6.57;;;3.17;;
72273;SDS011;60208;48.692;8.948;2023-04-15T05:12:42;5.47;;;3.10;;
72273;SDS011;60208;48.692;8.948;2023-04-15T05:15:08;7.00;;;3.38;;
72273;SDS011;60208;48.692;8.948;2023-04-15T05:17:34;5.13;;;3.30;;
72273;SDS011;60208;48.692;8.948;2023-04-15T05:19:59;6.93;;;3.30;;
72273;SDS011;60208;48.692;8.948;2023-04-15T05:22:26;5.88;;;3.20;;
72273;SDS011;60208;48.692;8.948;2023-04-15T05:24:51;6.50;;;3.70;;
72273;SDS011;60208;48.692;8.948;2023-04-15T05:27:16;7.45;;;4.50;;
72273;SDS011;60208;48.692;8.948;2023-04-15T05:29:43;8.68;;;4.03;;
72273;SDS011;60208;48.692;8.948;2023-04-15T05:32:09;6.93;;;3.47;;
72273;SDS011;60208;48.692;8.948;2023-04-15T05:34:34;7.75;;;3.80;;
72273;SDS011;60208;48.692;8.948;2023-04-15T05:37:00;8.90;;;3.92;;
72273;SDS011;60208;48.692;8.948;2023-04-15T05:39:26;6.15;;;3.58;;
72273;SDS011;60208;48.692;8.948;2023-04-15T05:41:51;8.70;;;4.22;;
72273;SDS011;60208;48.692;8.948;2023-04-15T05:44:17;9.10;;;4.22;;
72273;SDS011;60208;48.692;8.948;2023-04-15T05:46:42;10.70;;;4.40;;
72273;SDS011;60208;48.692;8.948;2023-04-15T05:49:08;9.50;;;4.13;;
72273;SDS011;60208;48.692;8.948;2023-04-15T05:51:33;9.18;;;4.70;;
72273;SDS011;60208;48.692;8.948;2023-04-15T05:53:58;7.78;;;3.67;;
72273;SDS011;60208;48.692;8.948;2023-04-15T05:56:24;8.23;;;3.75;;
72273;SDS011;60208;48.692;8.948;2023-04-15T05:58:51;7.40;;;3.20;;
72273;SDS011;60208;48.692;8.948;2023-04-15T06:01:16;5.38;;;2.83;;
72273;SDS011;60208;48.692;8.948;2023-04-15T06:03:41;4.10;;;2.67;;
72273;SDS011;60208;48.692;8.948;2023-04-15T06:06:07;6.95;;;2.75;;
72273;SDS011;60208;48.692;8.948;2023-04-15T06:08:33;4.90;;;2.40;;
72273;SDS011;60208;48.692;8.948;2023-04-15T06:10:59;8.02;;;2.47;;
72273;SDS011;60208;48.692;8.948;2023-04-15T06:13:25;5.63;;;2.58;;
72273;SDS011;60208;48.692;8.948;2023-04-15T06:15:51;7.75;;;2.65;;
72273;SDS011;60208;48.692;8.948;2023-04-15T06:18:16;8.02;;;2.80;;
72273;SDS011;60208;48.692;8.948;2023-04-15T06:20:41;6.93;;;3.45;;
72273;SDS011;60208;48.692;8.948;2023-04-15T06:23:07;4.78;;;3.10;;
72273;SDS011;60208;48.692;8.948;2023-04-15T06:25:32;6.03;;;3.08;;
72273;SDS011;60208;48.692;8.948;2023-04-15T06:27:58;10.43;;;3.20;;
72273;SDS011;60208;48.692;8.948;2023-04-15T06:30:23;5.60;;;3.17;;
72273;SDS011;60208;48.692;8.948;2023-04-15T06:32:48;5.93;;;3.00;;
72273;SDS011;60208;48.692;8.948;2023-04-15T06:35:14;7.40;;;2.97;;
72273;SDS011;60208;48.692;8.948;2023-04-15T06:37:40;6.25;;;3.03;;
72273;SDS011;60208;48.692;8.948;2023-04-15T06:40:05;6.25;;;3.03;;
72273;SDS011;60208;48.692;8.948;2023-04-15T06:42:32;6.43;;;3.00;;
72273;SDS011;60208;48.692;8.948;2023-04-15T06:44:58;9.38;;;3.10;;
72273;SDS011;60208;48.692;8.948;2023-04-15T06:47:23;7.72;;;2.80;;
72273;SDS011;60208;48.692;8.948;2023-04-15T06:49:49;5.18;;;2.72;;
72273;SDS011;60208;48.692;8.948;2023-04-15T06:52:14;6.68;;;3.15;;
72273;SDS011;60208;48.692;8.948;2023-04-15T06:54:41;7.40;;;3.40;;
72273;SDS011;60208;48.692;8.948;2023-04-15T06:57:06;5.45;;;3.20;;
72273;SDS011;60208;48.692;8.948;2023-04-15T06:59:33;7.15;;;3.70;;
72273;SDS011;60208;48.692;8.948;2023-04-15T07:01:58;9.85;;;4.25;;
72273;SDS011;60208;48.692;8.948;2023-04-15T07:04:24;7.45;;;3.72;;
72273;SDS011;60208;48.692;8.948;2023-04-15T07:06:49;7.75;;;3.80;;
72273;SDS011;60208;48.692;8.948;2023-04-15T07:09:14;5.97;;;3.47;;
72273;SDS011;60208;48.692;8.948;2023-04-15T07:11:40;4.93;;;3.13;;
72273;SDS011;60208;48.692;8.948;2023-04-15T07:14:06;6.80;;;3.85;;
72273;SDS011;60208;48.692;8.948;2023-04-15T07:16:31;7.07;;;3.78;;
72273;SDS011;60208;48.692;8.948;2023-04-15T07:18:56;7.53;;;3.25;;
72273;SDS011;60208;48.692;8.948;2023-04-15T07:21:22;9.05;;;3.05;;
72273;SDS011;60208;48.692;8.948;2023-04-15T07:23:48;10.55;;;3.95;;
72273;SDS011;60208;48.692;8.948;2023-04-15T07:26:13;5.85;;;3.30;;
72273;SDS011;60208;48.692;8.948;2023-04-15T07:28:39;4.90;;;2.88;;
72273;SDS011;60208;48.692;8.948;2023-04-15T07:31:04;7.28;;;3.10;;
72273;SDS011;60208;48.692;8.948;2023-04-15T07:33:30;6.65;;;3.22;;
72273;SDS011;60208;48.692;8.948;2023-04-15T07:35:55;7.22;;;3.60;;
72273;SDS011;60208;48.692;8.948;2023-04-15T07:38:21;6.00;;;3.40;;
72273;SDS011;60208;48.692;8.948;2023-04-15T07:40:47;6.55;;;3.05;;
72273;SDS011;60208;48.692;8.948;2023-04-15T07:43:12;5.80;;;3.15;;
72273;SDS011;60208;48.692;8.948;2023-04-15T07:45:38;6.10;;;3.03;;
72273;SDS011;60208;48.692;8.948;2023-04-15T07:48:04;6.18;;;2.83;;
72273;SDS011;60208;48.692;8.948;2023-04-15T07:50:30;7.30;;;3.35;;
72273;SDS011;60208;48.692;8.948;2023-04-15T07:52:56;5.22;;;3.15;;
72273;SDS011;60208;48.692;8.948;2023-04-15T07:55:22;7.95;;;3.40;;
72273;SDS011;60208;48.692;8.948;2023-04-15T07:57:48;8.52;;;3.10;;
72273;SDS011;60208;48.692;8.948;2023-04-15T08:00:14;6.03;;;3.35;;
72273;SDS011;60208;48.692;8.948;2023-04-15T08:02:40;8.63;;;3.40;;
72273;SDS011;60208;48.692;8.948;2023-04-15T08:05:06;6.63;;;3.17;;
72273;SDS011;60208;48.692;8.948;2023-04-15T08:07:33;8.57;;;3.55;;
72273;SDS011;60208;48.692;8.948;2023-04-15T08:09:58;6.03;;;3.50;;
72273;SDS011;60208;48.692;8.948;2023-04-15T08:12:24;9.65;;;3.95;;
72273;SDS011;60208;48.692;8.948;2023-04-15T08:14:49;7.95;;;3.72;;
72273;SDS011;60208;48.692;8.948;2023-04-15T08:17:15;8.15;;;4.50;;
72273;SDS011;60208;48.692;8.948;2023-04-15T08:19:41;6.78;;;2.80;;
72273;SDS011;60208;48.692;8.948;2023-04-15T08:22:06;8.00;;;2.92;;
72273;SDS011;60208;48.692;8.948;2023-04-15T08:24:32;6.82;;;2.38;;
72273;SDS011;60208;48.692;8.948;2023-04-15T08:26:58;8.43;;;2.47;;
72273;SDS011;60208;48.692;8.948;2023-04-15T08:29:23;9.13;;;3.00;;
72273;SDS011;60208;48.692;8.948;2023-04-15T08:31:49;9.65;;;3.33;;
72273;SDS011;60208;48.692;8.948;2023-04-15T08:34:14;9.07;;;3.20;;
72273;SDS011;60208;48.692;8.948;2023-04-15T08:36:40;9.02;;;2.80;;
72273;SDS011;60208;48.692;8.948;2023-04-15T08:39:06;4.97;;;2.40;;
72273;SDS011;60208;48.692;8.948;2023-04-15T08:41:45;3.70;;;2.00;;
72273;SDS011;60208;48.692;8.948;2023-04-15T08:44:12;4.80;;;2.20;;
72273;SDS011;60208;48.692;8.948;2023-04-15T08:46:38;5.72;;;2.60;;
72273;SDS011;60208;48.692;8.948;2023-04-15T08:49:03;5.85;;;1.80;;
72273;SDS011;60208;48.692;8.948;2023-04-15T08:51:30;4.63;;;1.92;;
72273;SDS011;60208;48.692;8.948;2023-04-15T08:53:55;3.50;;;1.50;;
72273;SDS011;60208;48.692;8.948;2023-04-15T08:56:23;5.68;;;1.83;;
72273;SDS011;60208;48.692;8.948;2023-04-15T08:58:50;3.22;;;1.58;;
72273;SDS011;60208;48.692;8.948;2023-04-15T09:01:16;4.63;;;1.55;;
72273;SDS011;60208;48.692;8.948;2023-04-15T09:03:42;3.72;;;1.63;;
72273;SDS011;60208;48.692;8.948;2023-04-15T09:06:08;11.30;;;2.05;;
72273;SDS011;60208;48.692;8.948;2023-04-15T09:08:33;6.85;;;2.00;;
72273;SDS011;60208;48.692;8.948;2023-04-15T09:11:00;5.90;;;2.08;;
72273;SDS011;60208;48.692;8.948;2023-04-15T09:13:26;4.45;;;2.00;;
72273;SDS011;60208;48.692;8.948;2023-04-15T09:15:52;9.45;;;2.38;;
72273;SDS011;60208;48.692;8.948;2023-04-15T09:18:30;4.45;;;1.90;;
72273;SDS011;60208;48.692;8.948;2023-04-15T09:21:02;3.72;;;1.88;;
72273;SDS011;60208;48.692;8.948;2023-04-15T09:23:32;6.65;;;2.25;;
72273;SDS011;60208;48.692;8.948;2023-04-15T09:25:58;4.32;;;2.38;;
72273;SDS011;60208;48.692;8.948;2023-04-15T09:28:25;4.63;;;2.10;;
72273;SDS011;60208;48.692;8.948;2023-04-15T09:30:51;3.72;;;1.73;;
72273;SDS011;60208;48.692;8.948;2023-04-15T09:33:19;5.00;;;2.00;;
72273;SDS011;60208;48.692;8.948;2023-04-15T09:35:55;4.53;;;1.85;;
72273;SDS011;60208;48.692;8.948;2023-04-15T09:38:22;3.92;;;1.92;;
72273;SDS011;60208;48.692;8.948;2023-04-15T09:40:48;6.63;;;2.08;;
72273;SDS011;60208;48.692;8.948;2023-04-15T09:43:13;3.95;;;1.67;;
72273;SDS011;60208;48.692;8.948;2023-04-15T09:45:46;6.10;;;1.95;;
72273;SDS011;60208;48.692;8.948;2023-04-15T09:48:19;5.65;;;1.65;;
72273;SDS011;60208;48.692;8.948;2023-04-15T09:50:46;3.72;;;1.75;;
72273;SDS011;60208;48.692;8.948;2023-04-15T09:53:21;5.20;;;2.30;;
72273;SDS011;60208;48.692;8.948;2023-04-15T09:58:23;5.18;;;1.65;;
72273;SDS011;60208;48.692;8.948;2023-04-15T10:00:50;8.00;;;2.03;;
72273;SDS011;60208;48.692;8.948;2023-04-15T10:03:20;4.65;;;2.08;;
72273;SDS011;60208;48.692;8.948;2023-04-15T10:05:51;3.13;;;1.45;;
72273;SDS011;60208;48.692;8.948;2023-04-15T10:08:23;3.60;;;1.50;;
72273;SDS011;60208;48.692;8.948;2023-04-15T10:10:51;5.50;;;2.08;;
72273;SDS011;60208;48.692;8.948;2023-04-15T10:13:17;4.57;;;1.70;;
72273;SDS011;60208;48.692;8.948;2023-04-15T10:15:46;3.42;;;1.80;;
72273;SDS011;60208;48.692;8.948;2023-04-15T10:18:25;4.38;;;1.90;;
72273;SDS011;60208;48.692;8.948;2023-04-15T10:20:52;4.45;;;1.80;;
72273;SDS011;60208;48.692;8.948;2023-04-15T10:23:18;4.55;;;1.90;;
72273;SDS011;60208;48.692;8.948;2023-04-15T10:25:45;5.65;;;1.65;;
72273;SDS011;60208;48.692;8.948;2023-04-15T10:28:11;4.03;;;1.60;;
72273;SDS011;60208;48.692;8.948;2023-04-15T10:30:36;5.65;;;1.80;;
72273;SDS011;60208;48.692;8.948;2023-04-15T10:33:03;3.28;;;1.58;;
72273;SDS011;60208;48.692;8.948;2023-04-15T10:35:30;3.58;;;1.65;;
72273;SDS011;60208;48.692;8.948;2023-04-15T10:37:57;3.50;;;1.50;;
72273;SDS011;60208;48.692;8.948;2023-04-15T10:42:59;4.53;;;1.38;;
72273;SDS011;60208;48.692;8.948;2023-04-15T10:45:26;3.00;;;1.25;;
72273;SDS011;60208;48.692;8.948;2023-04-15T10:47:53;3.90;;;1.33;;
72273;SDS011;60208;48.692;8.948;2023-04-15T10:50:19;3.17;;;1.48;;
72273;SDS011;60208;48.692;8.948;2023-04-15T10:52:45;3.60;;;1.27;;
72273;SDS011;60208;48.692;8.948;2023-04-15T10:55:14;4.22;;;1.45;;
72273;SDS011;60208;48.692;8.948;2023-04-15T10:57:43;2.65;;;1.35;;
72273;SDS011;60208;48.692;8.948;2023-04-15T11:00:15;2.67;;;1.30;;
72273;SDS011;60208;48.692;8.948;2023-04-15T11:05:08;4.15;;;1.30;;
72273;SDS011;60208;48.692;8.948;2023-04-15T11:10:49;4.68;;;1.80;;
72273;SDS011;60208;48.692;8.948;2023-04-15T11:12:50;6.40;;;1.50;;
72273;SDS011;60208;48.692;8.948;2023-04-15T11:17:54;2.65;;;1.30;;
72273;SDS011;60208;48.692;8.948;2023-04-15T11:20:21;2.90;;;1.40;;
72273;SDS011;60208;48.692;8.948;2023-04-15T11:22:50;10.07;;;1.90;;
72273;SDS011;60208;48.692;8.948;2023-04-15T11:25:22;4.43;;;1.90;;
72273;SDS011;60208;48.692;8.948;2023-04-15T11:27:48;5.15;;;1.50;;
72273;SDS011;60208;48.692;8.948;2023-04-15T11:30:17;2.78;;;1.67;;
72273;SDS011;60208;48.692;8.948;2023-04-15T11:32:45;4.90;;;1.90;;
72273;SDS011;60208;48.692;8.948;2023-04-15T11:35:10;5.57;;;1.80;;
72273;SDS011;60208;48.692;8.948;2023-04-15T11:37:35;3.85;;;1.77;;
72273;SDS011;60208;48.692;8.948;2023-04-15T11:40:01;5.15;;;1.90;;
72273;SDS011;60208;48.692;8.948;2023-04-15T11:42:27;4.45;;;1.88;;
72273;SDS011;60208;48.692;8.948;2023-04-15T11:45:05;5.72;;;2.30;;
72273;SDS011;60208;48.692;8.948;2023-04-15T11:47:41;5.18;;;2.10;;
72273;SDS011;60208;48.692;8.948;2023-04-15T11:50:22;3.22;;;1.70;;
72273;SDS011;60208;48.692;8.948;2023-04-15T11:52:51;3.47;;;1.90;;
72273;SDS011;60208;48.692;8.948;2023-04-15T11:55:27;4.63;;;2.30;;
72273;SDS011;60208;48.692;8.948;2023-04-15T11:58:09;4.15;;;2.38;;
72273;SDS011;60208;48.692;8.948;2023-04-15T12:00:34;4.03;;;1.92;;
72273;SDS011;60208;48.692;8.948;2023-04-15T12:03:18;5.40;;;2.42;;
72273;SDS011;60208;48.692;8.948;2023-04-15T12:11:17;4.22;;;2.00;;
72273;SDS011;60208;48.692;8.948;2023-04-15T12:13:43;4.28;;;2.20;;
72273;SDS011;60208;48.692;8.948;2023-04-15T12:16:10;7.55;;;2.40;;
72273;SDS011;60208;48.692;8.948;2023-04-15T12:18:38;4.60;;;1.92;;
72273;SDS011;60208;48.692;8.948;2023-04-15T12:21:10;5.75;;;2.38;;
72273;SDS011;60208;48.692;8.948;2023-04-15T12:23:37;5.20;;;2.40;;
72273;SDS011;60208;48.692;8.948;2023-04-15T12:26:05;5.60;;;3.05;;
72273;SDS011;60208;48.692;8.948;2023-04-15T12:28:32;5.25;;;2.30;;
72273;SDS011;60208;48.692;8.948;2023-04-15T12:30:59;5.82;;;2.10;;
72273;SDS011;60208;48.692;8.948;2023-04-15T12:33:35;6.80;;;3.00;;
72273;SDS011;60208;48.692;8.948;2023-04-15T12:36:00;8.48;;;2.63;;
72273;SDS011;60208;48.692;8.948;2023-04-15T12:38:26;5.22;;;2.40;;
72273;SDS011;60208;48.692;8.948;2023-04-15T12:40:51;5.85;;;2.55;;
72273;SDS011;60208;48.692;8.948;2023-04-15T12:43:16;6.40;;;3.10;;
72273;SDS011;60208;48.692;8.948;2023-04-15T12:45:42;5.30;;;2.78;;
72273;SDS011;60208;48.692;8.948;2023-04-15T12:48:07;6.25;;;3.47;;
72273;SDS011;60208;48.692;8.948;2023-04-15T12:50:34;5.57;;;3.08;;
72273;SDS011;60208;48.692;8.948;2023-04-15T12:52:59;4.90;;;2.70;;
72273;SDS011;60208;48.692;8.948;2023-04-15T12:55:25;3.63;;;2.40;;
72273;SDS011;60208;48.692;8.948;2023-04-15T12:57:50;5.72;;;3.22;;
72273;SDS011;60208;48.692;8.948;2023-04-15T13:00:19;6.75;;;3.00;;
72273;SDS011;60208;48.692;8.948;2023-04-15T13:02:45;6.90;;;2.53;;
72273;SDS011;60208;48.692;8.948;2023-04-15T13:05:10;6.97;;;2.88;;
72273;SDS011;60208;48.692;8.948;2023-04-15T13:07:38;4.63;;;2.50;;
72273;SDS011;60208;48.692;8.948;2023-04-15T13:10:04;6.30;;;2.67;;
72273;SDS011;60208;48.692;8.948;2023-04-15T13:12:30;6.15;;;2.50;;
72273;SDS011;60208;48.692;8.948;2023-04-15T13:14:57;3.60;;;2.60;;
72273;SDS011;60208;48.692;8.948;2023-04-15T13:17:22;7.57;;;2.53;;
72273;SDS011;60208;48.692;8.948;2023-04-15T13:19:47;4.93;;;2.85;;
72273;SDS011;60208;48.692;8.948;2023-04-15T13:22:13;4.53;;;2.97;;
72273;SDS011;60208;48.692;8.948;2023-04-15T13:24:39;5.55;;;2.85;;
72273;SDS011;60208;48.692;8.948;2023-04-15T13:27:04;9.57;;;3.15;;
72273;SDS011;60208;48.692;8.948;2023-04-15T13:29:31;3.88;;;2.55;;
72273;SDS011;60208;48.692;8.948;2023-04-15T13:31:56;7.20;;;2.67;;
72273;SDS011;60208;48.692;8.948;2023-04-15T13:34:22;5.55;;;2.22;;
72273;SDS011;60208;48.692;8.948;2023-04-15T13:36:47;5.72;;;2.75;;
72273;SDS011;60208;48.692;8.948;2023-04-15T13:39:13;3.97;;;2.78;;
72273;SDS011;60208;48.692;8.948;2023-04-15T13:41:38;8.70;;;3.55;;
72273;SDS011;60208;48.692;8.948;2023-04-15T13:44:04;7.30;;;3.22;;
72273;SDS011;60208;48.692;8.948;2023-04-15T13:46:30;5.00;;;3.10;;
72273;SDS011;60208;48.692;8.948;2023-04-15T13:48:55;5.85;;;3.10;;
72273;SDS011;60208;48.692;8.948;2023-04-15T13:51:21;6.70;;;3.30;;
72273;SDS011;60208;48.692;8.948;2023-04-15T13:53:47;6.78;;;3.10;;
72273;SDS011;60208;48.692;8.948;2023-04-15T13:56:12;4.85;;;2.97;;
72273;SDS011;60208;48.692;8.948;2023-04-15T13:58:39;3.97;;;2.70;;
72273;SDS011;60208;48.692;8.948;2023-04-15T14:01:05;6.93;;;3.15;;
72273;SDS011;60208;48.692;8.948;2023-04-15T14:03:30;8.75;;;3.08;;
72273;SDS011;60208;48.692;8.948;2023-04-15T14:05:56;5.65;;;3.10;;
72273;SDS011;60208;48.692;8.948;2023-04-15T14:11:14;4.95;;;2.38;;
72273;SDS011;60208;48.692;8.948;2023-04-15T14:13:39;4.72;;;2.38;;
72273;SDS011;60208;48.692;8.948;2023-04-15T14:16:05;3.45;;;1.75;;
72273;SDS011;60208;48.692;8.948;2023-04-15T14:18:31;5.45;;;1.90;;
72273;SDS011;60208;48.692;8.948;2023-04-15T14:20:57;6.55;;;1.70;;
72273;SDS011;60208;48.692;8.948;2023-04-15T14:23:22;4.55;;;1.80;;
72273;SDS011;60208;48.692;8.948;2023-04-15T14:25:48;4.45;;;1.40;;
72273;SDS011;60208;48.692;8.948;2023-04-15T14:28:14;3.40;;;1.50;;
72273;SDS011;60208;48.692;8.948;2023-04-15T14:30:40;3.10;;;1.70;;
72273;SDS011;60208;48.692;8.948;2023-04-15T14:33:05;3.20;;;1.50;;
72273;SDS011;60208;48.692;8.948;2023-04-15T14:35:31;3.42;;;1.48;;
72273;SDS011;60208;48.692;8.948;2023-04-15T14:37:56;3.10;;;1.80;;
72273;SDS011;60208;48.692;8.948;2023-04-15T14:40:22;4.47;;;1.90;;
72273;SDS011;60208;48.692;8.948;2023-04-15T14:42:47;3.90;;;1.92;;
72273;SDS011;60208;48.692;8.948;2023-04-15T14:45:12;2.80;;;1.70;;
72273;SDS011;60208;48.692;8.948;2023-04-15T14:47:38;2.67;;;1.65;;
72273;SDS011;60208;48.692;8.948;2023-04-15T14:50:03;3.55;;;1.80;;
72273;SDS011;60208;48.692;8.948;2023-04-15T14:52:30;5.18;;;2.20;;
72273;SDS011;60208;48.692;8.948;2023-04-15T14:55:02;4.82;;;1.83;;
72273;SDS011;60208;48.692;8.948;2023-04-15T14:57:34;3.38;;;2.22;;
72273;SDS011;60208;48.692;8.948;2023-04-15T15:00:01;6.35;;;2.60;;
72273;SDS011;60208;48.692;8.948;2023-04-15T15:02:27;4.28;;;2.35;;
72273;SDS011;60208;48.692;8.948;2023-04-15T15:04:53;4.03;;;2.30;;
72273;SDS011;60208;48.692;8.948;2023-04-15T15:07:18;4.22;;;2.42;;